Time;durP1;ratioP1;P1;durP2;ratioP2;P2;SDS_P1;SDS_P2;PMS_P1;PMS_P2;Temp;Humidity;BMP_temperature;BMP_pressure;BME280_temperature;BME280_humidity;BME280_pressure;Samples;Min_cycle;Max_cycle;Signal;HPM_P1;HPM_P2
2022/03/19 00:01:39;;;;;;;58.33;30.50;;;;;;;;;;5028697;28;20476;-80
2022/03/19 00:04:05;;;;;;;65.25;31.70;;;;;;;;;;5023676;28;20040;-80
2022/03/19 00:06:31;;;;;;;63.33;31.75;;;;;;;;;;5034434;28;20025;-81
2022/03/19 00:08:57;;;;;;;67.00;32.83;;;;;;;;;;5026399;28;20032;-80
2022/03/19 00:11:23;;;;;;;60.35;31.52;;;;;;;;;;5022248;28;20029;-81
2022/03/19 00:13:49;;;;;;;64.75;31.88;;;;;;;;;;5022234;28;20084;-81
2022/03/19 00:16:14;;;;;;;65.53;31.63;;;;;;;;;;5019107;28;20031;-81
2022/03/19 00:18:40;;;;;;;63.45;32.40;;;;;;;;;;5016106;28;20069;-81
2022/03/19 00:21:06;;;;;;;58.35;31.60;;;;;;;;;;5022577;28;20396;-80
2022/03/19 00:23:31;;;;;;;60.88;31.45;;;;;;;;;;5027315;28;20527;-81
2022/03/19 00:25:57;;;;;;;57.22;30.48;;;;;;;;;;5020271;28;20062;-81
2022/03/19 00:28:22;;;;;;;60.22;31.02;;;;;;;;;;5035451;28;20022;-81
2022/03/19 00:30:47;;;;;;;54.53;30.13;;;;;;;;;;5020214;28;20026;-81
2022/03/19 00:33:17;;;;;;;55.70;30.92;;;;;;;;;;5017240;28;20037;-80
2022/03/19 00:35:42;;;;;;;49.53;25.00;;;;;;;;;;5003615;28;20054;-82
2022/03/19 00:38:08;;;;;;;61.55;32.25;;;;;;;;;;5023033;28;20020;-82
2022/03/19 00:40:34;;;;;;;57.45;28.90;;;;;;;;;;5020600;28;20025;-79
2022/03/19 00:43:00;;;;;;;58.85;31.45;;;;;;;;;;5015146;28;20036;-82
2022/03/19 00:45:27;;;;;;;51.05;28.58;;;;;;;;;;5012729;28;20017;-82
2022/03/19 00:47:52;;;;;;;50.85;28.63;;;;;;;;;;4993425;28;20498;-81
2022/03/19 00:50:18;;;;;;;58.17;30.80;;;;;;;;;;5015108;28;20021;-82
2022/03/19 00:52:43;;;;;;;57.10;31.30;;;;;;;;;;4995201;28;20369;-80
2022/03/19 00:55:09;;;;;;;56.25;28.23;;;;;;;;;;5013653;28;20037;-80
2022/03/19 00:57:43;;;;;;;49.03;27.75;;;;;;;;;;4991273;28;20025;-81
2022/03/19 01:00:11;;;;;;;60.03;31.10;;;;;;;;;;5007434;28;20049;-80
2022/03/19 01:02:38;;;;;;;58.80;31.70;;;;;;;;;;4992753;28;20025;-80
2022/03/19 01:05:04;;;;;;;53.40;30.25;;;;;;;;;;5009268;28;20224;-81
2022/03/19 01:07:30;;;;;;;70.75;31.90;;;;;;;;;;4998996;28;20018;-80
2022/03/19 01:09:59;;;;;;;57.75;30.75;;;;;;;;;;5006958;28;20065;-81
2022/03/19 01:12:24;;;;;;;60.15;31.50;;;;;;;;;;5012867;28;20026;-81
2022/03/19 01:14:51;;;;;;;58.35;31.65;;;;;;;;;;5003432;28;20040;-82
2022/03/19 01:17:16;;;;;;;62.15;31.83;;;;;;;;;;5011601;28;20054;-80
2022/03/19 01:19:54;;;;;;;61.88;31.23;;;;;;;;;;5003989;28;20045;-80
2022/03/19 01:22:21;;;;;;;67.43;31.98;;;;;;;;;;5005973;28;20030;-81
2022/03/19 01:24:47;;;;;;;57.97;31.10;;;;;;;;;;5013922;28;20153;-81
2022/03/19 01:27:12;;;;;;;56.92;30.75;;;;;;;;;;5010896;28;20109;-82
2022/03/19 01:29:38;;;;;;;60.20;30.65;;;;;;;;;;5001664;28;20018;-81
2022/03/19 01:32:04;;;;;;;61.88;28.85;;;;;;;;;;5009015;28;20083;-80
2022/03/19 01:34:30;;;;;;;51.63;30.38;;;;;;;;;;5007443;28;20027;-81
2022/03/19 01:36:55;;;;;;;57.08;28.88;;;;;;;;;;4991358;28;20077;-81
2022/03/19 01:39:21;;;;;;;57.78;31.67;;;;;;;;;;5007466;28;20038;-81
2022/03/19 01:41:46;;;;;;;58.60;30.55;;;;;;;;;;5010376;28;20295;-82
2022/03/19 01:44:21;;;;;;;60.80;30.77;;;;;;;;;;5006068;28;20080;-81
2022/03/19 01:47:06;;;;;;;54.97;30.25;;;;;;;;;;5009864;28;20371;-81
2022/03/19 01:49:32;;;;;;;59.05;29.58;;;;;;;;;;4990856;28;20049;-82
2022/03/19 01:51:57;;;;;;;51.85;30.58;;;;;;;;;;4993751;28;20080;-81
2022/03/19 01:54:29;;;;;;;58.35;30.65;;;;;;;;;;5009576;28;20017;-80
2022/03/19 01:56:56;;;;;;;49.17;26.85;;;;;;;;;;5011185;28;20038;-81
2022/03/19 01:59:26;;;;;;;56.28;29.67;;;;;;;;;;5014621;28;20022;-81
2022/03/19 02:01:53;;;;;;;59.30;28.98;;;;;;;;;;5003789;28;20022;-81
2022/03/19 02:04:19;;;;;;;57.25;28.48;;;;;;;;;;5009769;28;20493;-82
2022/03/19 02:06:45;;;;;;;51.47;28.95;;;;;;;;;;5003982;28;20029;-81
2022/03/19 02:09:11;;;;;;;49.35;27.58;;;;;;;;;;5006748;28;20081;-81
2022/03/19 02:11:37;;;;;;;54.35;29.58;;;;;;;;;;5000615;28;20037;-81
2022/03/19 02:14:03;;;;;;;53.10;28.33;;;;;;;;;;5003202;28;20025;-81
2022/03/19 02:16:29;;;;;;;52.65;29.52;;;;;;;;;;5004985;28;20041;-80
2022/03/19 02:18:57;;;;;;;52.42;27.55;;;;;;;;;;5006882;28;20418;-81
2022/03/19 02:21:22;;;;;;;56.05;29.27;;;;;;;;;;4992694;28;20077;-81
2022/03/19 02:26:45;;;;;;;60.78;29.75;;;;;;;;;;5009696;28;20086;-81
2022/03/19 02:29:11;;;;;;;51.13;29.35;;;;;;;;;;5007539;28;20081;-80
2022/03/19 02:31:41;;;;;;;59.35;30.02;;;;;;;;;;5005992;28;20022;-80
2022/03/19 02:34:11;;;;;;;54.15;28.10;;;;;;;;;;4987980;28;20022;-81
2022/03/19 02:36:37;;;;;;;57.88;29.27;;;;;;;;;;5004770;28;20073;-81
2022/03/19 02:39:17;;;;;;;55.97;28.30;;;;;;;;;;5011513;28;20374;-81
2022/03/19 02:41:47;;;;;;;58.35;30.48;;;;;;;;;;5011036;28;20030;-80
2022/03/19 02:44:15;;;;;;;56.47;30.17;;;;;;;;;;5012218;28;20084;-80
2022/03/19 02:46:46;;;;;;;56.33;30.13;;;;;;;;;;5009078;28;20094;-81
2022/03/19 02:49:12;;;;;;;58.05;30.50;;;;;;;;;;5007464;28;20030;-80
2022/03/19 02:51:39;;;;;;;56.33;30.45;;;;;;;;;;5010086;28;20023;-82
2022/03/19 02:54:07;;;;;;;49.83;26.02;;;;;;;;;;5007555;28;20030;-81
2022/03/19 02:56:34;;;;;;;50.30;28.00;;;;;;;;;;5008988;28;20082;-81
2022/03/19 02:59:12;;;;;;;52.78;28.50;;;;;;;;;;4997605;28;20026;-81
2022/03/19 03:01:38;;;;;;;53.90;28.55;;;;;;;;;;5004602;28;20025;-81
2022/03/19 03:04:04;;;;;;;44.97;24.73;;;;;;;;;;4993080;28;20030;-81
2022/03/19 03:06:35;;;;;;;49.33;27.13;;;;;;;;;;5015121;28;20100;-79
2022/03/19 03:09:00;;;;;;;51.20;27.25;;;;;;;;;;5013065;28;20085;-80
2022/03/19 03:11:26;;;;;;;50.35;27.20;;;;;;;;;;5007931;28;20025;-79
2022/03/19 03:13:51;;;;;;;55.30;28.00;;;;;;;;;;5004455;28;20033;-80
2022/03/19 03:16:17;;;;;;;53.17;27.55;;;;;;;;;;5008888;28;20022;-79
2022/03/19 03:18:42;;;;;;;53.92;26.67;;;;;;;;;;5007755;28;20022;-80
2022/03/19 03:21:08;;;;;;;47.55;25.50;;;;;;;;;;5016755;28;20428;-81
2022/03/19 03:23:33;;;;;;;45.03;24.27;;;;;;;;;;5009883;28;20041;-80
2022/03/19 03:25:59;;;;;;;59.33;26.95;;;;;;;;;;5025825;28;20124;-81
2022/03/19 03:28:24;;;;;;;50.33;23.70;;;;;;;;;;5031227;28;20029;-80
2022/03/19 03:30:49;;;;;;;48.15;26.13;;;;;;;;;;5035496;28;20104;-79
2022/03/19 03:33:15;;;;;;;49.72;25.90;;;;;;;;;;5028896;28;20038;-79
2022/03/19 03:35:40;;;;;;;45.92;23.15;;;;;;;;;;5036484;28;20076;-81
2022/03/19 03:38:06;;;;;;;52.72;26.05;;;;;;;;;;5031001;28;20492;-80
2022/03/19 03:40:31;;;;;;;52.00;26.92;;;;;;;;;;5031384;28;20036;-80
2022/03/19 03:42:56;;;;;;;47.35;24.60;;;;;;;;;;5040459;28;20025;-80
2022/03/19 03:45:22;;;;;;;44.10;24.52;;;;;;;;;;5040308;28;20395;-80
2022/03/19 03:47:49;;;;;;;47.70;24.95;;;;;;;;;;5039366;28;20390;-79
2022/03/19 03:50:15;;;;;;;47.42;26.33;;;;;;;;;;5031804;28;20456;-81
2022/03/19 03:52:40;;;;;;;48.70;26.00;;;;;;;;;;5039075;28;20546;-80
2022/03/19 03:55:07;;;;;;;51.45;27.65;;;;;;;;;;5038217;28;20033;-81
2022/03/19 03:57:34;;;;;;;52.70;28.30;;;;;;;;;;5039151;28;20037;-80
2022/03/19 04:00:05;;;;;;;52.70;26.40;;;;;;;;;;5039973;28;20063;-80
2022/03/19 04:02:30;;;;;;;49.17;25.75;;;;;;;;;;5032328;28;20025;-81
2022/03/19 04:04:56;;;;;;;51.22;25.02;;;;;;;;;;5038475;28;20022;-80
2022/03/19 04:07:23;;;;;;;53.90;26.45;;;;;;;;;;5033157;28;20025;-80
2022/03/19 04:09:49;;;;;;;52.90;27.23;;;;;;;;;;5019344;28;20220;-80
2022/03/19 04:12:15;;;;;;;50.40;26.55;;;;;;;;;;5041501;28;20057;-80
2022/03/19 04:14:40;;;;;;;56.75;26.90;;;;;;;;;;5014858;28;20037;-81
2022/03/19 04:17:06;;;;;;;48.55;26.83;;;;;;;;;;5039633;28;20053;-80
2022/03/19 04:19:32;;;;;;;50.03;26.80;;;;;;;;;;5032911;28;20045;-80
2022/03/19 04:21:57;;;;;;;46.92;26.17;;;;;;;;;;5038070;28;20116;-80
2022/03/19 04:24:22;;;;;;;50.58;27.10;;;;;;;;;;5039304;28;20471;-80
2022/03/19 04:26:48;;;;;;;47.22;26.00;;;;;;;;;;5039730;28;20030;-79
2022/03/19 04:29:13;;;;;;;47.75;25.02;;;;;;;;;;5039671;28;20048;-80
2022/03/19 04:31:39;;;;;;;50.63;27.27;;;;;;;;;;5034031;28;20105;-81
2022/03/19 04:34:04;;;;;;;55.83;27.85;;;;;;;;;;5037117;28;20148;-81
2022/03/19 04:36:30;;;;;;;47.80;25.08;;;;;;;;;;5037182;28;20029;-80
2022/03/19 04:39:00;;;;;;;50.88;25.48;;;;;;;;;;5029512;28;20022;-80
2022/03/19 04:41:26;;;;;;;43.15;25.08;;;;;;;;;;5039440;28;20033;-80
2022/03/19 04:43:51;;;;;;;46.50;23.70;;;;;;;;;;5039630;28;20049;-80
2022/03/19 04:46:17;;;;;;;48.25;27.40;;;;;;;;;;5036520;28;20014;-80
2022/03/19 04:48:45;;;;;;;45.15;23.63;;;;;;;;;;5030147;28;20557;-80
2022/03/19 04:51:13;;;;;;;47.53;25.10;;;;;;;;;;5029653;28;20113;-81
2022/03/19 04:53:39;;;;;;;45.05;25.48;;;;;;;;;;5034335;28;20025;-80
2022/03/19 04:56:06;;;;;;;44.90;23.80;;;;;;;;;;5038569;28;20494;-80
2022/03/19 04:58:33;;;;;;;48.63;25.67;;;;;;;;;;5039565;28;20056;-80
2022/03/19 05:00:59;;;;;;;59.72;25.33;;;;;;;;;;5032520;28;20017;-80
2022/03/19 05:03:25;;;;;;;49.35;26.08;;;;;;;;;;5031973;28;20104;-80
2022/03/19 05:05:50;;;;;;;47.20;25.15;;;;;;;;;;5025950;28;20050;-81
2022/03/19 05:08:17;;;;;;;46.40;25.10;;;;;;;;;;5032979;28;20413;-80
2022/03/19 05:13:27;;;;;;;60.35;26.38;;;;;;;;;;5039685;28;20029;-80
2022/03/19 05:15:52;;;;;;;49.97;28.60;;;;;;;;;;5039401;28;20022;-80
2022/03/19 05:18:18;;;;;;;54.33;25.90;;;;;;;;;;5035882;28;20025;-81
2022/03/19 05:20:44;;;;;;;55.30;26.45;;;;;;;;;;5031548;28;20026;-81
2022/03/19 05:23:10;;;;;;;48.85;27.25;;;;;;;;;;5018871;28;20022;-81
2022/03/19 05:25:35;;;;;;;54.80;27.25;;;;;;;;;;5021747;28;20028;-81
2022/03/19 05:28:01;;;;;;;53.83;27.90;;;;;;;;;;5019009;28;20141;-80
2022/03/19 05:30:27;;;;;;;56.83;27.17;;;;;;;;;;5031236;28;20129;-81
2022/03/19 05:32:53;;;;;;;53.15;26.02;;;;;;;;;;5032158;28;20156;-81
2022/03/19 05:35:18;;;;;;;61.78;27.45;;;;;;;;;;5026185;28;20083;-80
2022/03/19 05:37:45;;;;;;;56.53;27.80;;;;;;;;;;5033418;28;20025;-80
2022/03/19 05:40:11;;;;;;;53.60;26.90;;;;;;;;;;5018086;28;20472;-81
2022/03/19 05:42:36;;;;;;;51.65;26.00;;;;;;;;;;5021729;28;20522;-80
2022/03/19 05:45:02;;;;;;;48.30;26.77;;;;;;;;;;5015034;28;20076;-80
2022/03/19 05:47:28;;;;;;;51.13;26.20;;;;;;;;;;5014637;28;20022;-81
2022/03/19 05:49:53;;;;;;;47.40;26.60;;;;;;;;;;5031999;28;20022;-81
2022/03/19 05:52:18;;;;;;;49.88;25.60;;;;;;;;;;4996096;28;20465;-81
2022/03/19 05:54:44;;;;;;;48.38;26.17;;;;;;;;;;4996193;28;20030;-81
2022/03/19 05:57:09;;;;;;;50.78;27.25;;;;;;;;;;4996030;28;20049;-81
2022/03/19 05:59:34;;;;;;;49.88;25.00;;;;;;;;;;4996028;28;20366;-80
2022/03/19 06:02:00;;;;;;;55.67;25.67;;;;;;;;;;5004357;28;20057;-80
2022/03/19 06:04:25;;;;;;;49.65;26.15;;;;;;;;;;5034077;28;20364;-80
2022/03/19 06:06:51;;;;;;;41.75;23.10;;;;;;;;;;5012418;28;20030;-81
2022/03/19 06:09:16;;;;;;;47.10;24.35;;;;;;;;;;5031732;28;20105;-81
2022/03/19 06:11:44;;;;;;;49.17;26.95;;;;;;;;;;5030084;28;20078;-79
2022/03/19 06:14:09;;;;;;;43.90;24.85;;;;;;;;;;5026709;28;20025;-81
2022/03/19 06:16:34;;;;;;;51.33;27.40;;;;;;;;;;5034310;28;20476;-80
2022/03/19 06:19:00;;;;;;;45.25;24.92;;;;;;;;;;5036482;28;20022;-84
2022/03/19 06:21:25;;;;;;;46.50;24.65;;;;;;;;;;5039835;28;20025;-85
2022/03/19 06:23:52;;;;;;;52.17;27.02;;;;;;;;;;5022948;28;20055;-83
2022/03/19 06:26:19;;;;;;;48.10;25.90;;;;;;;;;;5023432;28;20029;-81
2022/03/19 06:28:45;;;;;;;53.17;26.25;;;;;;;;;;5041424;28;20436;-80
2022/03/19 06:31:10;;;;;;;48.15;27.58;;;;;;;;;;5039011;28;20151;-83
2022/03/19 06:33:39;;;;;;;46.42;23.88;;;;;;;;;;5034503;28;20045;-85
2022/03/19 06:38:48;;;;;;;57.03;27.13;;;;;;;;;;5028814;28;20043;-83
2022/03/19 06:41:14;;;;;;;50.40;25.38;;;;;;;;;;5029607;28;20458;-83
2022/03/19 06:43:39;;;;;;;50.60;25.40;;;;;;;;;;5034611;28;20488;-83
2022/03/19 06:46:05;;;;;;;48.67;25.70;;;;;;;;;;5022152;28;20043;-84
2022/03/19 06:48:30;;;;;;;49.22;27.45;;;;;;;;;;5038038;28;20138;-84
2022/03/19 06:50:56;;;;;;;46.85;24.98;;;;;;;;;;5021086;28;20025;-86
2022/03/19 06:53:22;;;;;;;52.33;25.45;;;;;;;;;;5037419;28;20320;-86
2022/03/19 06:55:48;;;;;;;46.50;24.85;;;;;;;;;;5038912;28;20025;-85
2022/03/19 06:58:14;;;;;;;47.13;24.23;;;;;;;;;;5021759;28;20076;-86
2022/03/19 07:00:40;;;;;;;41.75;23.58;;;;;;;;;;5040017;28;20067;-86
2022/03/19 07:03:05;;;;;;;45.10;25.73;;;;;;;;;;5033130;28;20021;-85
2022/03/19 07:05:31;;;;;;;43.97;25.25;;;;;;;;;;5039962;28;20028;-83
2022/03/19 07:07:59;;;;;;;43.92;24.58;;;;;;;;;;5016874;28;20017;-85
2022/03/19 07:10:24;;;;;;;49.60;25.23;;;;;;;;;;5013577;28;20426;-84
2022/03/19 07:12:54;;;;;;;43.42;24.20;;;;;;;;;;5039027;28;20479;-84
2022/03/19 07:15:24;;;;;;;43.55;22.33;;;;;;;;;;5035474;28;20027;-82
2022/03/19 07:17:50;;;;;;;43.63;22.33;;;;;;;;;;5019103;28;20029;-85
2022/03/19 07:20:16;;;;;;;44.00;24.60;;;;;;;;;;5022525;28;20028;-84
2022/03/19 07:22:58;;;;;;;42.83;24.50;;;;;;;;;;5039438;28;20340;-84
2022/03/19 07:25:28;;;;;;;42.13;24.50;;;;;;;;;;5016123;28;20057;-84
2022/03/19 07:27:57;;;;;;;40.08;23.13;;;;;;;;;;5030384;28;20053;-84
2022/03/19 07:30:23;;;;;;;41.72;22.50;;;;;;;;;;5006572;28;20018;-81
2022/03/19 07:32:49;;;;;;;40.47;24.08;;;;;;;;;;5015048;28;20040;-84
2022/03/19 07:35:15;;;;;;;39.75;23.92;;;;;;;;;;5037438;28;20025;-81
2022/03/19 07:37:45;;;;;;;40.60;23.33;;;;;;;;;;5031260;28;20391;-80
2022/03/19 07:40:13;;;;;;;37.47;20.73;;;;;;;;;;5032900;28;20033;-82
2022/03/19 07:42:38;;;;;;;32.25;19.80;;;;;;;;;;5032484;28;20108;-86
2022/03/19 07:45:05;;;;;;;42.13;23.35;;;;;;;;;;5020313;28;20057;-85
2022/03/19 07:47:32;;;;;;;33.75;18.70;;;;;;;;;;5020499;28;20053;-83
2022/03/19 07:49:57;;;;;;;35.55;19.63;;;;;;;;;;5017808;28;20021;-86
2022/03/19 07:52:24;;;;;;;37.25;21.65;;;;;;;;;;5020290;28;20558;-84
2022/03/19 07:54:50;;;;;;;35.90;20.63;;;;;;;;;;5037453;28;20018;-84
2022/03/19 07:57:15;;;;;;;32.63;19.63;;;;;;;;;;5038530;28;20027;-82
2022/03/19 07:59:41;;;;;;;42.17;22.60;;;;;;;;;;5020770;28;20036;-83
2022/03/19 08:02:06;;;;;;;37.53;20.40;;;;;;;;;;5031531;28;20026;-81
2022/03/19 08:04:32;;;;;;;39.45;20.17;;;;;;;;;;5038129;28;20051;-83
2022/03/19 08:06:57;;;;;;;35.97;19.55;;;;;;;;;;5033329;28;20032;-84
2022/03/19 08:09:24;;;;;;;34.00;19.30;;;;;;;;;;5034722;28;20069;-84
2022/03/19 08:11:51;;;;;;;40.85;19.50;;;;;;;;;;5034619;28;20021;-84
2022/03/19 08:14:17;;;;;;;33.78;18.70;;;;;;;;;;5020815;28;20086;-86
2022/03/19 08:16:44;;;;;;;28.92;16.15;;;;;;;;;;5033358;28;20033;-84
2022/03/19 08:19:12;;;;;;;30.48;17.40;;;;;;;;;;5036107;28;20026;-84
2022/03/19 08:21:38;;;;;;;33.00;19.30;;;;;;;;;;5038052;28;20080;-84
2022/03/19 08:24:07;;;;;;;32.15;18.20;;;;;;;;;;5037994;28;20045;-82
2022/03/19 08:26:34;;;;;;;32.38;17.27;;;;;;;;;;5027764;28;20029;-86
2022/03/19 08:28:59;;;;;;;30.45;18.38;;;;;;;;;;5042135;28;20049;-85
2022/03/19 08:31:25;;;;;;;35.35;18.40;;;;;;;;;;5037925;28;20477;-84
2022/03/19 08:33:51;;;;;;;33.38;15.35;;;;;;;;;;5038297;28;20104;-86
2022/03/19 08:36:16;;;;;;;33.00;16.20;;;;;;;;;;5021592;28;20025;-85
2022/03/19 08:41:25;;;;;;;27.80;16.60;;;;;;;;;;5030640;28;20072;-85
2022/03/19 08:43:58;;;;;;;42.65;18.98;;;;;;;;;;5031909;28;20025;-86
2022/03/19 08:46:24;;;;;;;35.15;17.45;;;;;;;;;;5002429;28;20101;-83
2022/03/19 08:48:49;;;;;;;32.35;18.42;;;;;;;;;;5030757;28;20026;-84
2022/03/19 08:53:59;;;;;;;26.30;14.48;;;;;;;;;;5041933;28;20089;-85
2022/03/19 08:56:25;;;;;;;30.02;17.48;;;;;;;;;;5023716;28;20026;-83
2022/03/19 08:58:50;;;;;;;34.10;17.60;;;;;;;;;;5023497;28;20032;-82
2022/03/19 09:01:16;;;;;;;32.80;17.00;;;;;;;;;;5021329;28;20428;-84
2022/03/19 09:03:41;;;;;;;31.60;17.48;;;;;;;;;;5018476;28;20045;-85
2022/03/19 09:06:07;;;;;;;30.50;18.80;;;;;;;;;;5009246;28;20025;-83
2022/03/19 09:08:33;;;;;;;27.17;13.23;;;;;;;;;;5031807;28;20026;-83
2022/03/19 09:10:58;;;;;;;28.70;14.63;;;;;;;;;;5018263;28;20387;-84
2022/03/19 09:13:23;;;;;;;30.83;17.52;;;;;;;;;;5018067;28;20045;-84
2022/03/19 09:15:49;;;;;;;36.78;20.10;;;;;;;;;;5012740;28;20022;-83
2022/03/19 09:18:16;;;;;;;30.38;18.27;;;;;;;;;;5012958;28;20085;-82
2022/03/19 09:20:41;;;;;;;29.50;18.08;;;;;;;;;;5020937;28;20045;-84
2022/03/19 09:23:07;;;;;;;30.02;17.92;;;;;;;;;;4993814;28;20022;-83
2022/03/19 09:25:32;;;;;;;31.42;17.23;;;;;;;;;;5003192;28;20032;-86
2022/03/19 09:27:58;;;;;;;32.50;16.42;;;;;;;;;;5014021;28;20427;-84
2022/03/19 09:30:23;;;;;;;31.80;17.70;;;;;;;;;;5018321;28;20388;-85
2022/03/19 09:32:48;;;;;;;32.33;19.20;;;;;;;;;;5013934;28;20022;-86
2022/03/19 09:35:14;;;;;;;24.02;13.57;;;;;;;;;;4998119;28;20029;-84
2022/03/19 09:37:39;;;;;;;25.15;13.60;;;;;;;;;;5014257;28;20511;-82
2022/03/19 09:40:06;;;;;;;33.10;17.70;;;;;;;;;;5015652;28;20064;-85
2022/03/19 09:42:34;;;;;;;28.33;17.13;;;;;;;;;;5017835;28;20404;-85
2022/03/19 09:44:59;;;;;;;37.03;19.92;;;;;;;;;;5011684;28;20021;-86
2022/03/19 09:47:26;;;;;;;33.47;19.30;;;;;;;;;;5011938;28;20038;-85
2022/03/19 09:49:52;;;;;;;68.65;16.38;;;;;;;;;;5015346;28;20030;-85
2022/03/19 09:52:23;;;;;;;33.95;17.85;;;;;;;;;;5015079;28;20045;-84
2022/03/19 09:54:48;;;;;;;36.75;19.92;;;;;;;;;;5012111;28;20048;-83
2022/03/19 09:57:14;;;;;;;37.45;20.58;;;;;;;;;;4999623;28;20028;-84
2022/03/19 09:59:39;;;;;;;36.22;19.20;;;;;;;;;;5040358;28;20025;-84
2022/03/19 10:02:10;;;;;;;40.40;21.58;;;;;;;;;;5015593;28;20029;-83
2022/03/19 10:04:39;;;;;;;36.28;20.25;;;;;;;;;;5039636;28;20017;-84
2022/03/19 10:09:49;;;;;;;41.20;19.30;;;;;;;;;;5033170;28;20052;-82
2022/03/19 10:12:23;;;;;;;38.08;20.40;;;;;;;;;;5033819;28;20021;-86
2022/03/19 10:14:51;;;;;;;36.42;20.75;;;;;;;;;;5038252;28;20021;-86
2022/03/19 10:17:33;;;;;;;36.30;20.38;;;;;;;;;;5020499;28;20079;-85
2022/03/19 10:20:00;;;;;;;42.75;19.38;;;;;;;;;;5018737;28;20018;-86
2022/03/19 10:22:28;;;;;;;34.75;19.35;;;;;;;;;;5021517;28;20060;-83
2022/03/19 10:24:58;;;;;;;39.15;20.13;;;;;;;;;;5039172;28;20029;-87
2022/03/19 10:27:23;;;;;;;29.90;16.35;;;;;;;;;;5021849;28;20031;-89
2022/03/19 10:30:02;;;;;;;28.73;14.50;;;;;;;;;;5030550;28;20026;-87
2022/03/19 10:32:28;;;;;;;31.67;19.95;;;;;;;;;;5016929;28;20035;-86
2022/03/19 10:34:54;;;;;;;36.05;20.27;;;;;;;;;;5021665;28;20049;-86
2022/03/19 10:37:39;;;;;;;30.73;17.10;;;;;;;;;;5023422;28;20415;-84
2022/03/19 10:40:08;;;;;;;33.75;18.40;;;;;;;;;;5038002;28;20018;-86
2022/03/19 10:42:41;;;;;;;31.55;18.65;;;;;;;;;;5007628;28;20487;-87
2022/03/19 10:45:12;;;;;;;30.80;17.20;;;;;;;;;;5019003;28;20037;-87
2022/03/19 10:47:45;;;;;;;33.42;19.10;;;;;;;;;;5017779;28;20030;-84
2022/03/19 10:50:18;;;;;;;27.30;15.65;;;;;;;;;;5039300;28;20054;-83
2022/03/19 10:52:45;;;;;;;33.22;17.67;;;;;;;;;;5042593;28;20018;-84
2022/03/19 10:55:11;;;;;;;30.40;15.93;;;;;;;;;;5020967;28;20037;-85
2022/03/19 10:57:37;;;;;;;27.20;15.00;;;;;;;;;;5020872;28;20030;-84
2022/03/19 11:00:04;;;;;;;32.72;16.92;;;;;;;;;;5016729;28;20018;-84
2022/03/19 11:02:31;;;;;;;27.60;15.60;;;;;;;;;;5033325;28;20029;-85
2022/03/19 11:04:58;;;;;;;32.83;16.65;;;;;;;;;;5041601;28;20468;-85
2022/03/19 11:07:25;;;;;;;25.55;14.32;;;;;;;;;;5015809;28;20022;-82
2022/03/19 11:09:53;;;;;;;25.50;12.48;;;;;;;;;;5032538;28;20026;-83
2022/03/19 11:12:22;;;;;;;24.52;11.73;;;;;;;;;;5012328;28;20025;-82
2022/03/19 11:14:51;;;;;;;21.55;10.85;;;;;;;;;;5027530;28;20033;-83
2022/03/19 11:17:28;;;;;;;21.05;9.85;;;;;;;;;;5003519;28;20025;-81
2022/03/19 11:20:01;;;;;;;19.95;12.40;;;;;;;;;;5020973;28;20021;-82
2022/03/19 11:22:30;;;;;;;22.25;11.60;;;;;;;;;;5038772;28;20036;-83
2022/03/19 11:25:08;;;;;;;19.83;10.80;;;;;;;;;;5038146;28;20025;-81
2022/03/19 11:27:37;;;;;;;18.73;10.75;;;;;;;;;;5040396;28;20099;-80
2022/03/19 11:30:05;;;;;;;19.05;10.30;;;;;;;;;;5021701;28;20045;-84
2022/03/19 11:32:31;;;;;;;16.73;8.27;;;;;;;;;;5027458;28;20067;-84
2022/03/19 11:34:59;;;;;;;17.35;9.38;;;;;;;;;;5021009;28;20387;-81
2022/03/19 11:37:44;;;;;;;17.17;9.77;;;;;;;;;;5033092;28;20030;-81
2022/03/19 11:40:13;;;;;;;14.52;8.85;;;;;;;;;;5034208;28;20040;-78
2022/03/19 11:42:54;;;;;;;17.77;8.70;;;;;;;;;;5032864;28;20076;-83
2022/03/19 11:45:19;;;;;;;14.00;7.75;;;;;;;;;;5038026;28;20099;-81
2022/03/19 11:47:45;;;;;;;13.77;8.40;;;;;;;;;;5027506;28;20037;-83
2022/03/19 11:50:42;;;;;;;16.80;7.90;;;;;;;;;;5037727;28;20041;-83
2022/03/19 11:53:07;;;;;;;13.60;7.25;;;;;;;;;;5013425;28;20045;-82
2022/03/19 11:55:36;;;;;;;14.43;8.07;;;;;;;;;;5016826;28;20017;-80
2022/03/19 11:58:06;;;;;;;15.60;7.82;;;;;;;;;;5018478;28;20026;-79
2022/03/19 12:00:35;;;;;;;14.70;7.43;;;;;;;;;;5011188;28;20109;-81
2022/03/19 12:03:06;;;;;;;15.55;8.48;;;;;;;;;;5002948;28;20392;-80
2022/03/19 12:05:37;;;;;;;16.55;8.73;;;;;;;;;;5019124;28;20081;-78
2022/03/19 12:08:12;;;;;;;16.50;7.50;;;;;;;;;;5022272;28;20040;-81
2022/03/19 12:11:13;;;;;;;12.50;7.68;;;;;;;;;;5016190;28;20021;-84
2022/03/19 12:13:40;;;;;;;14.35;7.55;;;;;;;;;;5026468;28;20034;-80
2022/03/19 12:16:08;;;;;;;17.90;8.90;;;;;;;;;;5035739;28;20022;-80
2022/03/19 12:18:39;;;;;;;16.70;8.93;;;;;;;;;;5027909;28;20025;-80
2022/03/19 12:21:08;;;;;;;13.43;8.30;;;;;;;;;;5022338;28;20049;-84
2022/03/19 12:23:55;;;;;;;17.10;8.55;;;;;;;;;;5025253;28;20025;-84
2022/03/19 12:26:22;;;;;;;15.48;8.57;;;;;;;;;;5040047;28;20024;-84
2022/03/19 12:29:02;;;;;;;17.02;8.48;;;;;;;;;;5031839;28;20034;-82
2022/03/19 12:31:36;;;;;;;14.25;7.25;;;;;;;;;;5022306;28;20096;-84
2022/03/19 12:34:05;;;;;;;12.93;6.60;;;;;;;;;;5020408;28;20495;-83
2022/03/19 12:36:31;;;;;;;15.02;7.43;;;;;;;;;;5035576;28;20064;-80
2022/03/19 12:39:03;;;;;;;11.88;6.30;;;;;;;;;;5017158;28;20029;-79
2022/03/19 12:41:31;;;;;;;14.43;7.07;;;;;;;;;;5017343;28;20093;-83
2022/03/19 12:43:59;;;;;;;10.48;6.60;;;;;;;;;;5003627;28;20017;-80
2022/03/19 12:46:36;;;;;;;12.98;6.28;;;;;;;;;;5005871;28;20025;-84
2022/03/19 12:49:09;;;;;;;12.48;6.68;;;;;;;;;;5009203;28;20041;-85
2022/03/19 12:51:37;;;;;;;13.88;6.93;;;;;;;;;;5012349;28;20026;-79
2022/03/19 12:54:31;;;;;;;15.45;7.45;;;;;;;;;;5003213;28;20026;-82
2022/03/19 12:56:58;;;;;;;10.43;6.40;;;;;;;;;;5001502;28;20026;-82
2022/03/19 12:59:28;;;;;;;12.02;6.43;;;;;;;;;;5001059;28;20025;-85
2022/03/19 13:01:55;;;;;;;13.40;6.65;;;;;;;;;;4993904;28;20026;-83
2022/03/19 13:04:28;;;;;;;13.23;6.13;;;;;;;;;;5030270;23;20104;-84
2022/03/19 13:06:55;;;;;;;11.32;5.25;;;;;;;;;;4997761;28;20030;-85
2022/03/19 13:09:34;;;;;;;8.70;4.45;;;;;;;;;;5004248;28;20046;-85
2022/03/19 13:12:03;;;;;;;7.75;4.28;;;;;;;;;;5002546;28;20026;-85
2022/03/19 13:14:29;;;;;;;8.93;5.30;;;;;;;;;;4987031;28;20596;-86
2022/03/19 13:16:55;;;;;;;11.25;4.53;;;;;;;;;;5002571;28;20038;-87
2022/03/19 13:19:25;;;;;;;9.55;4.93;;;;;;;;;;4986616;28;20014;-83
2022/03/19 13:21:52;;;;;;;9.27;5.00;;;;;;;;;;5004122;28;20034;-85
2022/03/19 13:24:19;;;;;;;7.82;4.45;;;;;;;;;;4990554;28;20495;-85
2022/03/19 13:26:45;;;;;;;9.93;4.65;;;;;;;;;;4999716;28;20034;-85
2022/03/19 13:29:26;;;;;;;9.25;4.88;;;;;;;;;;4987396;28;20092;-86
2022/03/19 13:31:56;;;;;;;9.23;4.50;;;;;;;;;;4999499;28;20033;-88
2022/03/19 13:34:23;;;;;;;6.35;4.28;;;;;;;;;;4985391;28;20026;-84
2022/03/19 13:36:50;;;;;;;10.70;4.75;;;;;;;;;;5001939;28;20022;-86
2022/03/19 13:39:24;;;;;;;11.10;5.10;;;;;;;;;;5003506;28;20073;-84
2022/03/19 13:41:51;;;;;;;7.07;4.35;;;;;;;;;;4987284;28;20050;-86
2022/03/19 13:44:34;;;;;;;5.43;3.45;;;;;;;;;;4998775;28;20029;-84
2022/03/19 13:47:08;;;;;;;9.00;4.07;;;;;;;;;;4992265;28;20026;-86
2022/03/19 13:49:45;;;;;;;13.80;4.35;;;;;;;;;;4997452;28;20488;-84
2022/03/19 13:52:28;;;;;;;5.85;3.88;;;;;;;;;;4995786;28;20030;-83
2022/03/19 13:54:55;;;;;;;6.95;4.03;;;;;;;;;;4994908;28;20535;-84
2022/03/19 13:57:21;;;;;;;6.75;3.20;;;;;;;;;;4982432;28;20026;-86
2022/03/19 13:59:47;;;;;;;6.72;3.58;;;;;;;;;;4986708;28;20022;-86
2022/03/19 14:02:17;;;;;;;6.50;3.05;;;;;;;;;;5001373;28;20011;-87
2022/03/19 14:04:47;;;;;;;13.35;3.60;;;;;;;;;;5007329;28;20037;-86
2022/03/19 14:07:13;;;;;;;11.45;3.10;;;;;;;;;;4993356;28;20090;-85
2022/03/19 14:09:44;;;;;;;8.25;3.40;;;;;;;;;;4992194;28;20048;-85
2022/03/19 14:12:09;;;;;;;6.82;2.75;;;;;;;;;;4988421;28;20026;-86
2022/03/19 14:14:36;;;;;;;6.00;3.17;;;;;;;;;;4996644;28;20030;-86
2022/03/19 14:17:15;;;;;;;5.43;2.58;;;;;;;;;;4982491;28;20048;-86
2022/03/19 14:19:51;;;;;;;5.25;2.60;;;;;;;;;;4981009;28;20033;-83
2022/03/19 14:22:28;;;;;;;6.93;2.50;;;;;;;;;;4990262;28;20061;-83
2022/03/19 14:25:00;;;;;;;4.20;2.20;;;;;;;;;;4986530;28;20042;-85
2022/03/19 14:27:26;;;;;;;4.97;2.22;;;;;;;;;;4986786;28;20058;-85
2022/03/19 14:29:52;;;;;;;4.63;2.17;;;;;;;;;;4981774;28;20015;-85
2022/03/19 14:32:17;;;;;;;3.03;2.28;;;;;;;;;;4989594;28;20101;-83
2022/03/19 14:34:42;;;;;;;3.58;2.40;;;;;;;;;;4979809;28;20046;-85
2022/03/19 14:37:08;;;;;;;8.48;2.10;;;;;;;;;;4997513;28;20526;-86
2022/03/19 14:39:33;;;;;;;3.72;1.90;;;;;;;;;;4990660;28;20062;-87
2022/03/19 14:42:01;;;;;;;3.03;1.73;;;;;;;;;;5010273;28;20029;-84